»·PEaware :: N6149J KVNY-KONT

N6149J :: KVNY-KONT

FLIGHT INFORMATION

Flight Status: Arrived
Operator: Privately registered:
United States
More flights under this callsign
Pilot: Brian M. (6066)
Aircraft: PIPER PA-28 CHEROKEE ARCHER
(P28A)
More flights by this aircraft type
Origin: KVNY Van Nuys
United States
Destination: KONT Ontario Intl
United States
More flights between these airports :: More routes between these airports
Route: DIRECT
File this flight plan on PilotEdge
Remarks: Sample flight plan
Altitude:
(Current/Filed)
4,500ft
Speed:
(Current/Filed)
115kts
Departed: 05-Feb-15 06:15 PM
Arrived: 05-Feb-15 06:49 PM
Distance/Time
Traveled:
45nm/0:34
Distance/Time
To Go:
Arrived

Flight Plot

Page will automatically refresh every two minutes.


Map Options




Map Legend


Flown Route
Filed Route
Departure Airport
Arrival Airport
Navaid (VOR, NDB)
Fix

Horizontal Profiles

Position Reports

Time Latitude Longitude Heading Altitude Ground
Speed
05-Feb-15 17:53 34.211316 -118.492038 88 805ft 0kts
05-Feb-15 17:54 34.211316 -118.492034 87 805ft 0kts
05-Feb-15 17:55 34.211316 -118.492034 87 805ft 0kts
05-Feb-15 17:56 34.211316 -118.492034 87 805ft 0kts
05-Feb-15 17:57 34.211316 -118.492034 87 805ft 0kts
05-Feb-15 17:58 34.211316 -118.492034 87 805ft 0kts
05-Feb-15 17:59 34.211316 -118.492034 87 805ft 0kts
05-Feb-15 18:00 34.211316 -118.492034 87 805ft 0kts
05-Feb-15 18:01 34.211316 -118.492034 87 805ft 0kts
05-Feb-15 18:02 34.211316 -118.492034 87 805ft 0kts
05-Feb-15 18:03 34.211316 -118.492034 87 805ft 0kts
05-Feb-15 18:04 34.211548 -118.491825 14 805ft 2kts
05-Feb-15 18:05 34.213865 -118.491864 349 805ft 9kts
05-Feb-15 18:06 34.215925 -118.492162 359 805ft 9kts
05-Feb-15 18:07 34.218703 -118.492135 60 805ft 5kts
05-Feb-15 18:08 34.218751 -118.491985 73 805ft 0kts
05-Feb-15 18:09 34.218733 -118.491275 128 805ft 2kts
05-Feb-15 18:10 34.207181 -118.491075 173 1189ft 73kts
05-Feb-15 18:11 34.187148 -118.485506 163 2182ft 78kts
05-Feb-15 18:12 34.167955 -118.478879 159 3211ft 74kts
05-Feb-15 18:13 34.141812 -118.459505 145 3189ft 130kts
05-Feb-15 18:14 34.114573 -118.457222 101 2668ft 92kts
05-Feb-15 18:15 34.127396 -118.436840 58 2530ft 85kts
05-Feb-15 18:16 34.137059 -118.412147 88 2615ft 84kts
05-Feb-15 18:17 34.137922 -118.386513 85 3012ft 71kts
05-Feb-15 18:18 34.137346 -118.360497 79 3908ft 86kts
05-Feb-15 18:19 34.133924 -118.331211 95 4389ft 102kts
05-Feb-15 18:20 34.130279 -118.298486 93 4249ft 98kts
05-Feb-15 18:21 34.128963 -118.266743 93 4574ft 100kts
05-Feb-15 18:22 34.131678 -118.232161 77 4593ft 113kts
05-Feb-15 18:23 34.129243 -118.193837 99 4603ft 115kts
05-Feb-15 18:24 34.120730 -118.155106 103 4397ft 118kts
05-Feb-15 18:25 34.116622 -118.116848 84 4430ft 101kts
05-Feb-15 18:26 34.120385 -118.084799 81 4537ft 98kts
05-Feb-15 18:27 34.123337 -118.050771 88 4530ft 106kts
05-Feb-15 18:28 34.116310 -118.016150 99 4620ft 103kts
05-Feb-15 18:29 34.115459 -117.981432 83 4635ft 105kts
05-Feb-15 18:30 34.105912 -117.947616 99 4665ft 107kts
05-Feb-15 18:31 34.103577 -117.912693 104 4689ft 107kts
05-Feb-15 18:32 34.098189 -117.877759 87 4640ft 109kts
05-Feb-15 18:33 34.094033 -117.842463 112 4655ft 110kts
05-Feb-15 18:34 34.080865 -117.809164 106 4750ft 101kts
05-Feb-15 18:35 34.075936 -117.775115 85 4657ft 107kts
05-Feb-15 18:36 34.076655 -117.740021 90 4603ft 96kts
05-Feb-15 18:37 34.073685 -117.705114 92 3835ft 103kts
05-Feb-15 18:38 34.072173 -117.672744 83 3263ft 92kts
05-Feb-15 18:39 34.069165 -117.641472 90 2665ft 92kts
05-Feb-15 18:40 34.072365 -117.613853 72 2543ft 76kts
05-Feb-15 18:41 34.075450 -117.586460 82 2360ft 83kts
05-Feb-15 18:42 34.072826 -117.562529 163 2142ft 84kts
05-Feb-15 18:43 34.058074 -117.575520 252 1605ft 76kts
05-Feb-15 18:44 34.057063 -117.595410 263 947ft 1kts
05-Feb-15 18:45 34.057578 -117.595655 36 947ft 6kts
05-Feb-15 18:46 34.057893 -117.595490 5 947ft 0kts

Navigation Log

Ident Type
Flight plan parsing failed, navigation log unavailable